Time;durP1;ratioP1;P1;durP2;ratioP2;P2;SDS_P1;SDS_P2;PMS_P1;PMS_P2;Temp;Humidity;BMP_temperature;BMP_pressure;BME280_temperature;BME280_humidity;BME280_pressure;Samples;Min_cycle;Max_cycle;Signal;HPM_P1;HPM_P2
2022/10/31 00:00:43;;;;;;;16.90;9.23;;;13.50;99.90;;;;;;5029075;28;20042;-73
2022/10/31 00:03:09;;;;;;;16.88;8.95;;;13.50;99.90;;;;;;5009856;28;20037;-73
2022/10/31 00:05:34;;;;;;;19.98;9.75;;;13.40;99.90;;;;;;5027146;28;20029;-72
2022/10/31 00:08:00;;;;;;;18.35;9.25;;;13.40;99.90;;;;;;5028037;28;20115;-71
2022/10/31 00:10:26;;;;;;;18.20;9.38;;;13.40;99.90;;;;;;5028087;28;20670;-71
2022/10/31 00:12:51;;;;;;;23.42;10.43;;;13.40;99.90;;;;;;5028397;28;20440;-72
2022/10/31 00:15:17;;;;;;;19.33;10.68;;;13.30;99.90;;;;;;5026864;28;20475;-71
2022/10/31 00:17:43;;;;;;;22.25;11.02;;;13.30;99.90;;;;;;5040598;28;20057;-72
2022/10/31 00:20:09;;;;;;;24.95;10.55;;;13.30;99.90;;;;;;5041112;28;20045;-72
2022/10/31 00:22:34;;;;;;;22.45;11.23;;;13.30;99.90;;;;;;5028640;28;20084;-72
2022/10/31 00:25:00;;;;;;;20.33;11.32;;;13.30;99.90;;;;;;5030570;28;20036;-72
2022/10/31 00:27:26;;;;;;;24.55;12.27;;;13.20;99.90;;;;;;5022999;28;20054;-72
2022/10/31 00:29:51;;;;;;;20.08;10.65;;;13.10;99.90;;;;;;5026808;28;20041;-72
2022/10/31 00:32:17;;;;;;;22.65;12.05;;;13.20;99.90;;;;;;5027914;28;20564;-72
2022/10/31 00:34:43;;;;;;;22.02;12.18;;;13.10;99.90;;;;;;5025468;28;20112;-72
2022/10/31 00:37:08;;;;;;;22.70;12.45;;;13.10;99.90;;;;;;5025925;28;20505;-72
2022/10/31 00:39:34;;;;;;;22.52;13.45;;;13.10;99.90;;;;;;5024353;28;20494;-71
2022/10/31 00:42:00;;;;;;;22.17;11.77;;;13.10;99.90;;;;;;5047562;28;20048;-73
2022/10/31 00:44:25;;;;;;;22.17;12.60;;;13.10;99.90;;;;;;5027742;28;20061;-72
2022/10/31 00:46:51;;;;;;;22.08;12.90;;;13.10;99.90;;;;;;5029381;28;20041;-72
2022/10/31 00:49:17;;;;;;;22.58;13.45;;;13.00;99.90;;;;;;5028801;28;20048;-71
2022/10/31 00:51:42;;;;;;;21.80;12.98;;;13.00;99.90;;;;;;5028352;28;20041;-72
2022/10/31 00:54:08;;;;;;;27.33;13.57;;;13.20;99.90;;;;;;5030668;28;20147;-71
2022/10/31 00:56:34;;;;;;;22.90;13.85;;;13.00;99.90;;;;;;5030716;28;20049;-72
2022/10/31 00:58:59;;;;;;;23.98;13.23;;;12.90;99.90;;;;;;5032130;28;21443;-72
2022/10/31 01:01:25;;;;;;;24.67;13.05;;;12.90;99.90;;;;;;5024605;28;20140;-72
2022/10/31 01:03:51;;;;;;;25.65;14.43;;;12.90;99.90;;;;;;5036369;28;20033;-72
2022/10/31 01:06:17;;;;;;;24.13;13.82;;;12.80;99.90;;;;;;5007827;28;20040;-72
2022/10/31 01:08:43;;;;;;;23.98;13.40;;;12.80;99.90;;;;;;5026004;28;20049;-72
2022/10/31 01:11:12;;;;;;;26.92;13.52;;;12.80;99.90;;;;;;5026365;28;20457;-72
2022/10/31 01:13:38;;;;;;;26.92;14.40;;;12.80;99.90;;;;;;5027618;28;20083;-72
2022/10/31 01:16:05;;;;;;;24.67;13.88;;;12.80;99.90;;;;;;5032563;28;20794;-72
2022/10/31 01:18:32;;;;;;;24.15;13.50;;;12.80;99.90;;;;;;5010065;28;20140;-72
2022/10/31 01:21:13;;;;;;;25.58;13.90;;;12.70;99.90;;;;;;5024663;28;20749;-72
2022/10/31 01:23:40;;;;;;;23.58;14.43;;;12.70;99.90;;;;;;5023842;28;20414;-72
2022/10/31 01:26:20;;;;;;;24.02;13.90;;;12.70;99.90;;;;;;5023264;28;20091;-71
2022/10/31 01:28:52;;;;;;;22.87;13.93;;;12.70;99.90;;;;;;5027274;28;20077;-72
2022/10/31 01:31:21;;;;;;;25.98;14.30;;;12.70;99.90;;;;;;5028320;28;20333;-72
2022/10/31 01:33:47;;;;;;;21.02;13.07;;;12.70;99.90;;;;;;5024945;28;20592;-71
2022/10/31 01:36:30;;;;;;;28.08;13.82;;;12.70;99.90;;;;;;5008646;28;20053;-72
2022/10/31 01:38:59;;;;;;;27.42;13.50;;;12.60;99.90;;;;;;5035950;28;20060;-72
2022/10/31 01:41:28;;;;;;;27.23;13.70;;;12.60;99.90;;;;;;5007621;28;20540;-72
2022/10/31 01:44:13;;;;;;;23.58;12.98;;;12.60;99.90;;;;;;5022899;28;20053;-72
2022/10/31 01:46:56;;;;;;;25.08;13.50;;;12.60;99.90;;;;;;5032787;28;20033;-72
2022/10/31 01:49:37;;;;;;;19.52;12.57;;;12.60;99.90;;;;;;5048184;28;20045;-72
2022/10/31 01:52:43;;;;;;;19.42;12.48;;;12.60;99.90;;;;;;5026179;28;20037;-71
2022/10/31 01:55:17;;;;;;;26.83;13.45;;;12.60;99.90;;;;;;5035589;28;20078;-71
2022/10/31 01:57:46;;;;;;;24.45;13.82;;;12.50;99.90;;;;;;5030782;28;20063;-72
2022/10/31 02:00:13;;;;;;;21.45;12.73;;;12.50;99.90;;;;;;5031074;28;20037;-71
2022/10/31 02:02:41;;;;;;;24.02;13.85;;;12.50;99.90;;;;;;5036369;28;20033;-72
2022/10/31 02:05:11;;;;;;;23.40;12.60;;;12.50;99.90;;;;;;5044555;28;20076;-72
2022/10/31 02:07:43;;;;;;;23.75;13.40;;;12.50;99.90;;;;;;5051224;28;20534;-71
2022/10/31 02:10:08;;;;;;;;;;;12.50;99.90;;;;;;5039176;28;20079;-71
2022/10/31 02:12:36;;;;;;;19.60;13.00;;;12.40;99.90;;;;;;5050016;28;19920;-72
2022/10/31 02:15:03;;;;;;;28.48;13.10;;;12.40;99.90;;;;;;5025915;28;20069;-72
2022/10/31 02:17:30;;;;;;;26.00;14.52;;;12.40;99.90;;;;;;5038567;28;20042;-72
2022/10/31 02:20:17;;;;;;;22.25;12.68;;;12.40;99.90;;;;;;5039222;28;20045;-72
2022/10/31 02:22:48;;;;;;;22.65;13.48;;;12.30;99.90;;;;;;5027465;28;20058;-72
2022/10/31 02:25:52;;;;;;;23.83;14.13;;;12.30;99.90;;;;;;5019575;28;20460;-71
2022/10/31 02:28:54;;;;;;;22.77;12.75;;;12.30;99.90;;;;;;5024990;28;20092;-72
2022/10/31 02:31:51;;;;;;;26.40;13.73;;;12.30;99.90;;;;;;5020597;28;20054;-72
2022/10/31 02:34:36;;;;;;;22.45;13.13;;;12.40;99.90;;;;;;5019236;28;20154;-72
2022/10/31 02:37:13;;;;;;;22.38;13.63;;;12.20;99.90;;;;;;5021887;28;20526;-72
2022/10/31 02:39:59;;;;;;;25.08;13.68;;;12.20;99.90;;;;;;5025591;28;20110;-72
2022/10/31 02:43:02;;;;;;;25.98;13.90;;;12.20;99.90;;;;;;5024987;28;20060;-72
2022/10/31 02:45:40;;;;;;;23.92;13.15;;;12.10;99.90;;;;;;5019929;28;20470;-72
2022/10/31 02:48:18;;;;;;;25.27;13.27;;;12.10;99.90;;;;;;5024591;28;20050;-71
2022/10/31 02:50:49;;;;;;;21.70;13.25;;;12.10;99.90;;;;;;5019141;28;20046;-71
2022/10/31 02:53:16;;;;;;;22.77;12.88;;;12.10;99.90;;;;;;5019933;28;20131;-73
2022/10/31 02:55:41;;;;;;;21.73;13.43;;;12.10;99.90;;;;;;5025021;28;20045;-73
2022/10/31 02:58:15;;;;;;;23.52;13.27;;;12.10;99.90;;;;;;5020169;28;20045;-73
2022/10/31 03:01:01;;;;;;;25.90;13.20;;;12.00;99.90;;;;;;5018211;28;20506;-72
2022/10/31 03:03:49;;;;;;;21.55;13.18;;;12.00;99.90;;;;;;5018944;28;20056;-72
2022/10/31 03:06:20;;;;;;;23.10;13.95;;;12.00;99.90;;;;;;5028643;28;20540;-72
2022/10/31 03:08:57;;;;;;;22.58;12.85;;;12.00;99.90;;;;;;5013611;28;20166;-73
2022/10/31 03:11:28;;;;;;;22.55;13.82;;;12.00;99.90;;;;;;5026190;28;20041;-73
2022/10/31 03:14:20;;;;;;;22.42;13.35;;;12.00;99.90;;;;;;5018188;28;20077;-72
2022/10/31 03:16:51;;;;;;;22.52;13.13;;;12.00;99.90;;;;;;5016699;28;20048;-72
2022/10/31 03:19:25;;;;;;;;;;;11.90;99.90;;;;;;5021999;28;20045;-73
2022/10/31 03:22:22;;;;;;;21.13;12.68;;;11.90;99.90;;;;;;5019493;28;19967;-72
2022/10/31 03:24:49;;;;;;;19.73;12.75;;;11.90;99.90;;;;;;5019581;28;20049;-72
2022/10/31 03:27:20;;;;;;;18.70;12.88;;;11.90;99.90;;;;;;5015464;28;20049;-73
2022/10/31 03:29:48;;;;;;;24.83;13.27;;;11.80;99.90;;;;;;5021152;28;20151;-73
2022/10/31 03:32:25;;;;;;;18.50;12.40;;;11.80;99.90;;;;;;5022678;28;20041;-72
2022/10/31 03:34:56;;;;;;;22.40;13.35;;;11.80;99.90;;;;;;5017346;28;20044;-72
2022/10/31 03:37:24;;;;;;;18.67;12.83;;;11.80;99.90;;;;;;5007514;28;20048;-73
2022/10/31 03:39:49;;;;;;;26.25;14.05;;;11.80;99.90;;;;;;5023404;28;20402;-73
2022/10/31 03:42:21;;;;;;;21.42;13.98;;;11.70;99.90;;;;;;5009827;28;20152;-73
2022/10/31 03:44:59;;;;;;;23.05;13.65;;;11.70;99.90;;;;;;5016220;28;20530;-73
2022/10/31 03:47:25;;;;;;;23.88;13.70;;;11.60;99.90;;;;;;5020513;28;20044;-72
2022/10/31 03:49:51;;;;;;;25.38;13.57;;;11.60;99.90;;;;;;5013846;28;20052;-72
2022/10/31 03:52:28;;;;;;;20.83;12.85;;;11.60;99.90;;;;;;5022548;28;20084;-73
2022/10/31 03:54:58;;;;;;;24.67;13.18;;;11.60;99.90;;;;;;5028203;28;20132;-72
2022/10/31 03:57:32;;;;;;;25.58;13.52;;;11.60;99.90;;;;;;5019398;28;20041;-72
2022/10/31 04:00:19;;;;;;;23.92;14.23;;;11.50;99.90;;;;;;5023713;28;20057;-72
2022/10/31 04:03:12;;;;;;;25.85;13.60;;;11.50;99.90;;;;;;5020197;28;20123;-73
2022/10/31 04:05:40;;;;;;;23.23;13.15;;;11.50;99.90;;;;;;5010875;28;20049;-72
2022/10/31 04:08:11;;;;;;;25.50;12.93;;;11.50;99.90;;;;;;5020167;28;20049;-72
2022/10/31 04:10:38;;;;;;;20.17;12.43;;;11.50;99.90;;;;;;5025524;28;20038;-72
2022/10/31 04:13:09;;;;;;;24.13;13.05;;;11.50;99.90;;;;;;5020485;28;20052;-72
2022/10/31 04:15:36;;;;;;;;;;;11.60;99.90;;;;;;5021123;28;20417;-72
2022/10/31 04:18:04;;;;;;;21.30;11.80;;;11.40;99.90;;;;;;5021354;28;19929;-72
2022/10/31 04:20:36;;;;;;;20.60;11.88;;;11.40;99.90;;;;;;5021584;28;21700;-72
2022/10/31 04:23:03;;;;;;;20.02;12.32;;;11.40;99.90;;;;;;5018069;28;20679;-72
2022/10/31 04:25:29;;;;;;;23.35;12.77;;;11.40;99.90;;;;;;5022113;28;20399;-72
2022/10/31 04:27:55;;;;;;;18.35;11.55;;;11.40;99.90;;;;;;5023825;28;20087;-72
2022/10/31 04:30:21;;;;;;;19.35;12.32;;;11.40;99.90;;;;;;5015272;28;20046;-72
2022/10/31 04:32:47;;;;;;;20.05;12.20;;;11.60;99.90;;;;;;5013927;28;20049;-72
2022/10/31 04:35:13;;;;;;;20.92;11.60;;;11.40;99.90;;;;;;5023012;28;20500;-73
2022/10/31 04:37:38;;;;;;;20.77;11.52;;;11.30;99.90;;;;;;5005770;28;20049;-72
2022/10/31 04:40:05;;;;;;;19.95;12.13;;;11.30;99.90;;;;;;5011311;28;20077;-72
2022/10/31 04:42:31;;;;;;;19.65;11.57;;;11.30;99.90;;;;;;5019632;28;20095;-73
2022/10/31 04:44:56;;;;;;;18.55;11.90;;;11.30;99.90;;;;;;5001380;28;20038;-72
2022/10/31 04:47:22;;;;;;;20.42;12.02;;;11.30;99.90;;;;;;5015131;28;20122;-73
2022/10/31 04:49:48;;;;;;;22.85;13.20;;;11.20;99.90;;;;;;5015963;28;20045;-72
2022/10/31 04:52:13;;;;;;;20.42;12.30;;;11.20;99.90;;;;;;5021156;28;20041;-73
2022/10/31 04:54:39;;;;;;;20.40;12.52;;;11.20;99.90;;;;;;5018189;28;20049;-72
2022/10/31 04:57:05;;;;;;;24.52;12.80;;;11.20;99.90;;;;;;5018038;28;20036;-73
2022/10/31 04:59:30;;;;;;;19.45;11.80;;;11.20;99.90;;;;;;5019371;28;20120;-73
2022/10/31 05:01:56;;;;;;;23.20;12.82;;;11.40;99.90;;;;;;5016926;28;20091;-73
2022/10/31 05:04:22;;;;;;;21.33;13.13;;;11.10;99.90;;;;;;5013108;28;20147;-73
2022/10/31 05:06:48;;;;;;;18.55;12.07;;;11.10;99.90;;;;;;5017759;28;20103;-73
2022/10/31 05:09:13;;;;;;;19.83;12.73;;;11.10;99.90;;;;;;5016394;28;20052;-72
2022/10/31 05:11:39;;;;;;;18.08;11.80;;;11.00;99.90;;;;;;5009057;28;20044;-72
2022/10/31 05:14:05;;;;;;;20.77;13.18;;;11.00;99.90;;;;;;5017822;28;20045;-73
2022/10/31 05:16:31;;;;;;;19.65;13.13;;;11.00;99.90;;;;;;5017012;28;20047;-73
2022/10/31 05:18:56;;;;;;;23.15;12.68;;;11.00;99.90;;;;;;5011576;28;20098;-72
2022/10/31 05:21:22;;;;;;;24.58;13.75;;;11.00;99.90;;;;;;4997538;28;20238;-73
2022/10/31 05:23:48;;;;;;;22.52;13.02;;;11.00;99.90;;;;;;5018367;28;20050;-72
2022/10/31 05:26:13;;;;;;;21.30;13.05;;;10.90;99.90;;;;;;5019778;28;20202;-73
2022/10/31 05:28:39;;;;;;;22.80;12.82;;;10.90;99.90;;;;;;5017976;28;20037;-72
2022/10/31 05:31:05;;;;;;;22.92;13.55;;;10.90;99.90;;;;;;5004579;28;20488;-72
2022/10/31 05:33:30;;;;;;;20.33;14.15;;;10.80;99.90;;;;;;5014539;28;20033;-72
2022/10/31 05:35:56;;;;;;;24.70;13.50;;;10.80;99.90;;;;;;5008310;28;20053;-72
2022/10/31 05:38:22;;;;;;;22.45;13.15;;;10.80;99.90;;;;;;5021600;28;20076;-73
2022/10/31 05:40:47;;;;;;;25.02;14.38;;;10.80;99.90;;;;;;4995799;28;20478;-72
2022/10/31 05:43:13;;;;;;;19.90;13.50;;;10.80;99.90;;;;;;5006558;28;20038;-72
2022/10/31 05:45:39;;;;;;;23.40;14.13;;;10.70;99.90;;;;;;5011026;28;20124;-72
2022/10/31 05:48:08;;;;;;;22.55;13.77;;;10.70;99.90;;;;;;5011561;28;20049;-72
2022/10/31 05:50:34;;;;;;;25.30;15.13;;;10.70;99.90;;;;;;5009349;28;20046;-73
2022/10/31 05:53:05;;;;;;;22.38;14.02;;;10.70;99.90;;;;;;5005973;28;20045;-72
2022/10/31 05:55:32;;;;;;;21.63;14.35;;;10.70;99.90;;;;;;5009925;28;20056;-72
2022/10/31 05:57:58;;;;;;;28.33;14.52;;;10.60;99.90;;;;;;5010056;28;20052;-72
2022/10/31 06:00:25;;;;;;;27.77;15.70;;;10.60;99.90;;;;;;4999293;28;20062;-73
2022/10/31 06:03:02;;;;;;;22.52;14.75;;;10.60;99.90;;;;;;5007024;28;20050;-73
2022/10/31 06:05:29;;;;;;;23.55;14.35;;;10.60;99.90;;;;;;5001191;28;20053;-72
2022/10/31 06:07:55;;;;;;;25.50;14.13;;;10.50;99.90;;;;;;5000528;28;20099;-72
2022/10/31 06:10:21;;;;;;;22.27;14.10;;;10.60;99.90;;;;;;5007767;28;20049;-71
2022/10/31 06:12:48;;;;;;;23.05;14.20;;;10.50;99.90;;;;;;5026044;28;20053;-73
2022/10/31 06:15:14;;;;;;;24.02;14.05;;;10.50;99.90;;;;;;5015395;28;20523;-72
2022/10/31 06:17:40;;;;;;;24.10;14.95;;;10.50;99.90;;;;;;5000992;28;20132;-74
2022/10/31 06:20:07;;;;;;;22.80;13.40;;;10.50;99.90;;;;;;4997269;28;20067;-72
2022/10/31 06:22:33;;;;;;;24.08;14.57;;;10.50;99.90;;;;;;4986235;28;20245;-72
2022/10/31 06:24:59;;;;;;;20.23;13.80;;;10.50;99.90;;;;;;5000449;28;20046;-72
2022/10/31 06:27:24;;;;;;;26.23;14.52;;;10.50;99.90;;;;;;5022814;28;20041;-72
2022/10/31 06:29:50;;;;;;;24.02;14.55;;;10.50;99.90;;;;;;5012118;28;20042;-73
2022/10/31 06:32:17;;;;;;;23.00;14.02;;;10.40;99.90;;;;;;5009455;28;20057;-72
2022/10/31 06:34:43;;;;;;;23.52;14.25;;;10.90;99.90;;;;;;5010619;28;20049;-73
2022/10/31 06:37:10;;;;;;;26.15;15.43;;;10.40;99.90;;;;;;5012610;28;20410;-72
2022/10/31 06:39:36;;;;;;;25.65;14.70;;;10.40;99.90;;;;;;5005744;28;20046;-72
2022/10/31 06:42:02;;;;;;;30.00;15.48;;;10.30;99.90;;;;;;5012509;28;20481;-73
2022/10/31 06:44:28;;;;;;;24.95;14.65;;;10.30;99.90;;;;;;5009637;28;20521;-73
2022/10/31 06:46:54;;;;;;;26.83;14.82;;;10.30;99.90;;;;;;5027359;28;20050;-72
2022/10/31 06:49:20;;;;;;;22.10;13.95;;;10.30;99.90;;;;;;5018731;28;20037;-72
2022/10/31 06:51:49;;;;;;;27.85;15.57;;;10.30;99.90;;;;;;5017826;28;20545;-72
2022/10/31 06:54:16;;;;;;;22.33;14.55;;;10.30;99.90;;;;;;5015122;28;20043;-73
2022/10/31 06:56:41;;;;;;;25.40;16.25;;;10.30;99.90;;;;;;5011120;28;20548;-73
2022/10/31 06:59:07;;;;;;;25.13;14.98;;;10.30;99.90;;;;;;5003197;28;20033;-73
2022/10/31 07:01:33;;;;;;;22.20;14.07;;;10.30;99.90;;;;;;5006676;28;20068;-73
2022/10/31 07:03:59;;;;;;;23.15;14.40;;;10.30;99.90;;;;;;5014458;28;20045;-72
2022/10/31 07:06:25;;;;;;;21.13;13.50;;;10.30;99.90;;;;;;5017665;28;20034;-73
2022/10/31 07:08:50;;;;;;;25.75;14.57;;;10.30;99.90;;;;;;5012481;28;20049;-72
2022/10/31 07:11:16;;;;;;;24.80;15.07;;;10.30;99.90;;;;;;5007725;28;20084;-73
2022/10/31 07:13:42;;;;;;;25.20;15.65;;;10.30;99.90;;;;;;4999781;28;20042;-72
2022/10/31 07:16:08;;;;;;;26.95;16.27;;;10.30;99.90;;;;;;5004551;28;20103;-73
2022/10/31 07:18:34;;;;;;;22.60;15.50;;;10.30;99.90;;;;;;5013870;28;20045;-73
2022/10/31 07:21:00;;;;;;;23.92;14.35;;;10.30;99.90;;;;;;5013017;28;20546;-72
2022/10/31 07:23:26;;;;;;;23.83;15.90;;;10.40;99.90;;;;;;5011148;28;20133;-73
2022/10/31 07:25:56;;;;;;;24.08;15.45;;;10.30;99.90;;;;;;5011580;28;20273;-73
2022/10/31 07:28:22;;;;;;;28.53;15.77;;;10.40;99.90;;;;;;5023028;28;20049;-73
2022/10/31 07:30:52;;;;;;;25.83;15.40;;;10.60;99.90;;;;;;5013617;28;20050;-73
2022/10/31 07:33:18;;;;;;;24.52;16.10;;;10.70;99.90;;;;;;4998929;28;20560;-73
2022/10/31 07:35:44;;;;;;;29.70;17.20;;;10.40;99.90;;;;;;5016450;28;20046;-72
2022/10/31 07:38:11;;;;;;;26.48;15.50;;;10.50;99.90;;;;;;5014163;28;20091;-73
2022/10/31 07:40:38;;;;;;;25.48;15.65;;;10.60;99.90;;;;;;5018466;28;20056;-73
2022/10/31 07:43:03;;;;;;;28.83;16.52;;;10.60;99.90;;;;;;5012209;28;20376;-73
2022/10/31 07:45:29;;;;;;;28.80;15.73;;;10.60;99.90;;;;;;5013049;28;20095;-72
2022/10/31 07:47:55;;;;;;;25.90;16.42;;;10.60;99.90;;;;;;5016042;28;20037;-73
2022/10/31 07:50:24;;;;;;;23.30;14.40;;;10.70;99.90;;;;;;5011803;28;20041;-73
2022/10/31 07:53:03;;;;;;;24.08;15.05;;;10.80;99.90;;;;;;5014678;28;20135;-73
2022/10/31 07:55:30;;;;;;;21.60;14.45;;;10.80;99.90;;;;;;5011581;28;20131;-73
2022/10/31 07:58:15;;;;;;;26.10;14.73;;;10.80;99.90;;;;;;5012907;28;20054;-72
2022/10/31 08:00:43;;;;;;;21.83;14.48;;;10.90;99.90;;;;;;5009318;28;20129;-73
2022/10/31 08:03:19;;;;;;;19.77;13.82;;;11.00;99.90;;;;;;4999605;28;20041;-73
2022/10/31 08:05:45;;;;;;;22.83;15.10;;;11.00;99.90;;;;;;4996692;28;20033;-73
2022/10/31 08:08:13;;;;;;;22.73;14.32;;;11.10;99.90;;;;;;5011240;28;20080;-73
2022/10/31 08:10:40;;;;;;;23.13;14.63;;;11.10;99.90;;;;;;4999091;28;20053;-73
2022/10/31 08:13:13;;;;;;;20.95;13.82;;;11.20;99.90;;;;;;5012516;28;20653;-73
2022/10/31 08:15:41;;;;;;;23.63;14.23;;;11.20;99.90;;;;;;5012487;28;20063;-73
2022/10/31 08:18:14;;;;;;;26.83;14.43;;;11.30;99.90;;;;;;5011107;28;20406;-72
2022/10/31 08:20:40;;;;;;;26.20;13.43;;;11.30;99.90;;;;;;4987098;28;20555;-73
2022/10/31 08:23:06;;;;;;;19.95;13.52;;;11.30;99.90;;;;;;4996709;28;20060;-73
2022/10/31 08:25:34;;;;;;;25.30;14.40;;;11.40;99.90;;;;;;5011480;28;20049;-73
2022/10/31 08:28:00;;;;;;;20.77;13.10;;;11.40;99.90;;;;;;5028927;28;20048;-73
2022/10/31 08:30:31;;;;;;;21.08;12.77;;;11.60;99.90;;;;;;5005548;28;20050;-73
2022/10/31 08:33:03;;;;;;;19.17;12.80;;;11.40;99.90;;;;;;5020235;28;20466;-73
2022/10/31 08:35:28;;;;;;;21.48;13.75;;;11.50;99.90;;;;;;5002351;28;20474;-73
2022/10/31 08:37:55;;;;;;;19.63;12.95;;;11.50;99.90;;;;;;5016301;28;20049;-73
2022/10/31 08:40:22;;;;;;;21.23;13.05;;;11.50;99.90;;;;;;5014621;28;20045;-73
2022/10/31 08:42:54;;;;;;;21.95;13.70;;;11.60;99.90;;;;;;5012668;28;20051;-73
2022/10/31 08:45:20;;;;;;;21.80;13.13;;;11.60;99.90;;;;;;5014037;28;20041;-73
2022/10/31 08:47:46;;;;;;;20.95;13.20;;;11.60;99.90;;;;;;5000173;28;20075;-73
2022/10/31 08:50:11;;;;;;;21.23;13.13;;;11.70;99.90;;;;;;5012738;28;20085;-72
2022/10/31 08:52:37;;;;;;;21.63;12.82;;;11.70;99.90;;;;;;5008970;28;20037;-73
2022/10/31 08:55:03;;;;;;;21.30;14.20;;;11.70;99.90;;;;;;5019303;28;20491;-73
2022/10/31 08:57:29;;;;;;;19.35;12.80;;;11.70;99.90;;;;;;5017515;28;20514;-73
2022/10/31 08:59:54;;;;;;;20.73;13.63;;;11.80;99.90;;;;;;5013517;28;20044;-74
2022/10/31 09:02:20;;;;;;;19.65;13.00;;;11.80;99.90;;;;;;5019057;28;20064;-73
2022/10/31 09:04:46;;;;;;;19.92;13.30;;;11.90;99.90;;;;;;5019109;28;20045;-73
2022/10/31 09:07:12;;;;;;;23.13;13.65;;;11.90;99.90;;;;;;5020817;28;20048;-73
2022/10/31 09:09:38;;;;;;;21.55;13.48;;;12.00;99.90;;;;;;5014966;28;20061;-74
2022/10/31 09:12:04;;;;;;;23.88;12.82;;;12.00;99.90;;;;;;5021814;28;20075;-73
2022/10/31 09:14:29;;;;;;;19.13;13.35;;;12.10;99.90;;;;;;5016374;28;20132;-73
2022/10/31 09:16:55;;;;;;;21.35;12.98;;;12.20;99.90;;;;;;5002748;28;20044;-73
2022/10/31 09:19:21;;;;;;;20.92;12.70;;;12.20;99.90;;;;;;5017513;28;20103;-73
2022/10/31 09:21:47;;;;;;;19.80;12.80;;;12.20;99.90;;;;;;5012089;28;20052;-73
2022/10/31 09:24:12;;;;;;;18.95;13.18;;;12.30;99.90;;;;;;5013445;28;20176;-72
2022/10/31 09:26:38;;;;;;;21.58;13.20;;;12.30;99.90;;;;;;5016620;28;20045;-73
2022/10/31 09:29:04;;;;;;;18.52;12.60;;;12.40;99.90;;;;;;5018707;28;20123;-73
2022/10/31 09:31:30;;;;;;;21.50;12.30;;;12.40;99.90;;;;;;5014471;28;20053;-73
2022/10/31 09:33:55;;;;;;;19.40;11.60;;;12.50;99.90;;;;;;5016563;28;20049;-73
2022/10/31 09:36:21;;;;;;;17.85;11.60;;;12.80;99.90;;;;;;5020633;28;20088;-73
2022/10/31 09:38:47;;;;;;;18.10;11.48;;;12.60;99.90;;;;;;5011816;28;20088;-73
2022/10/31 09:41:25;;;;;;;16.30;11.45;;;12.60;99.90;;;;;;5016077;28;20045;-74
2022/10/31 09:44:18;;;;;;;18.73;12.27;;;12.70;99.90;;;;;;5019416;28;20507;-72
2022/10/31 09:47:03;;;;;;;17.77;11.18;;;12.80;99.90;;;;;;5018833;28;20060;-72
2022/10/31 09:49:50;;;;;;;16.67;9.50;;;12.80;99.90;;;;;;5017749;28;20052;-73
2022/10/31 09:52:22;;;;;;;17.73;11.32;;;12.90;99.90;;;;;;5013336;28;20042;-73
2022/10/31 09:55:03;;;;;;;16.17;10.50;;;12.90;99.90;;;;;;5016052;28;20045;-73
2022/10/31 09:57:35;;;;;;;21.17;12.13;;;13.00;99.90;;;;;;4998375;28;20037;-73
2022/10/31 10:00:06;;;;;;;17.38;11.18;;;13.20;99.90;;;;;;5018487;28;20064;-72
2022/10/31 10:02:46;;;;;;;18.03;12.23;;;13.10;99.90;;;;;;5017198;28;20554;-73
2022/10/31 10:05:18;;;;;;;16.17;11.43;;;13.10;99.90;;;;;;5019231;28;20081;-73
2022/10/31 10:08:00;;;;;;;16.02;10.65;;;13.40;99.90;;;;;;5021194;28;20129;-73
2022/10/31 10:10:30;;;;;;;15.90;10.80;;;13.20;99.90;;;;;;5016697;28;20050;-73
2022/10/31 10:13:16;;;;;;;19.25;11.50;;;13.20;99.90;;;;;;5017405;28;20048;-73
2022/10/31 10:15:48;;;;;;;19.38;11.38;;;13.30;99.90;;;;;;5023182;28;20053;-73
2022/10/31 10:18:41;;;;;;;18.02;12.13;;;13.30;99.90;;;;;;5008577;28;20033;-73
2022/10/31 10:21:28;;;;;;;17.05;11.05;;;13.40;99.90;;;;;;5019641;28;20068;-73
2022/10/31 10:24:27;;;;;;;16.30;10.07;;;13.50;99.90;;;;;;5013379;28;20045;-72
2022/10/31 10:27:35;;;;;;;17.58;11.10;;;13.50;99.90;;;;;;5024506;28;20512;-73
2022/10/31 10:30:32;;;;;;;16.98;10.00;;;13.60;99.90;;;;;;5040291;28;20125;-73
2022/10/31 10:33:02;;;;;;;16.42;10.30;;;13.70;99.90;;;;;;5022455;28;20037;-73
2022/10/31 10:35:34;;;;;;;16.27;10.02;;;13.70;99.90;;;;;;5022339;28;20065;-72
2022/10/31 10:38:26;;;;;;;15.10;9.75;;;13.80;99.90;;;;;;5020386;28;20076;-72
2022/10/31 10:40:53;;;;;;;18.35;9.38;;;13.80;99.90;;;;;;5017785;28;20053;-72
2022/10/31 10:43:26;;;;;;;16.13;8.98;;;13.80;99.90;;;;;;5020202;28;22071;-72
2022/10/31 10:49:15;;;;;;;15.70;9.63;;;13.80;99.90;;;;;;5018616;28;20057;-72
2022/10/31 10:52:02;;;;;;;21.15;9.73;;;13.80;99.90;;;;;;5023153;28;20046;-71
2022/10/31 10:54:34;;;;;;;17.33;9.95;;;14.10;99.90;;;;;;5025888;28;20041;-72
2022/10/31 10:57:09;;;;;;;22.27;10.15;;;13.80;99.90;;;;;;5022689;28;20037;-72
2022/10/31 10:59:35;;;;;;;20.90;10.05;;;13.80;99.90;;;;;;5025075;28;20037;-73
2022/10/31 11:02:03;;;;;;;19.40;9.95;;;13.90;99.90;;;;;;5016542;28;20510;-72
2022/10/31 11:04:39;;;;;;;17.02;10.15;;;13.90;99.90;;;;;;5039647;28;20071;-72
2022/10/31 11:07:14;;;;;;;17.50;10.20;;;13.90;99.90;;;;;;5028681;28;20049;-72
2022/10/31 11:09:39;;;;;;;16.42;10.07;;;14.00;99.90;;;;;;5005379;28;20499;-73
2022/10/31 11:12:16;;;;;;;17.08;9.80;;;14.00;99.90;;;;;;5019064;28;20064;-73
2022/10/31 11:14:59;;;;;;;17.98;9.60;;;14.00;99.90;;;;;;5017892;28;20076;-73
2022/10/31 11:17:33;;;;;;;16.67;9.93;;;14.00;99.90;;;;;;5007622;28;20053;-72
2022/10/31 11:20:22;;;;;;;17.83;9.30;;;14.10;99.90;;;;;;5019752;28;20041;-72
2022/10/31 11:22:48;;;;;;;18.30;10.02;;;14.10;99.90;;;;;;5022729;28;20446;-72
2022/10/31 11:25:25;;;;;;;18.17;9.50;;;14.10;99.90;;;;;;5019952;28;20487;-73
2022/10/31 11:28:05;;;;;;;16.27;9.20;;;14.10;99.90;;;;;;5011102;28;20037;-72
2022/10/31 11:30:42;;;;;;;16.65;9.32;;;14.20;99.90;;;;;;5012864;28;20045;-73
2022/10/31 11:33:31;;;;;;;16.80;8.30;;;14.20;99.90;;;;;;4991702;28;20065;-72
2022/10/31 11:35:58;;;;;;;16.85;8.70;;;14.20;99.90;;;;;;5014814;28;20119;-73
2022/10/31 11:38:31;;;;;;;19.17;8.20;;;14.20;99.90;;;;;;5014432;28;20124;-72
2022/10/31 11:41:08;;;;;;;15.68;8.77;;;14.20;99.90;;;;;;5002318;28;20128;-73
2022/10/31 11:43:34;;;;;;;18.35;8.65;;;14.20;99.90;;;;;;4988665;28;20434;-72
2022/10/31 11:46:07;;;;;;;21.00;9.18;;;14.20;99.90;;;;;;5008249;28;20269;-73
2022/10/31 11:48:33;;;;;;;23.25;8.50;;;14.20;99.90;;;;;;5017348;28;20414;-72
2022/10/31 11:50:58;;;;;;;16.67;8.27;;;14.30;99.90;;;;;;5019907;28;20141;-72
2022/10/31 11:53:30;;;;;;;16.45;8.45;;;14.30;99.90;;;;;;5012552;28;20068;-71
2022/10/31 11:56:12;;;;;;;15.27;7.65;;;14.30;99.90;;;;;;5014575;28;20050;-72
2022/10/31 11:58:39;;;;;;;13.70;7.82;;;14.40;99.90;;;;;;5019450;28;20453;-71
2022/10/31 12:01:05;;;;;;;13.80;7.30;;;14.40;99.90;;;;;;5014814;28;20046;-71
2022/10/31 12:04:03;;;;;;;14.32;7.78;;;14.50;99.90;;;;;;5016418;28;20044;-72
2022/10/31 12:06:33;;;;;;;18.55;8.52;;;14.50;99.90;;;;;;5017658;28;20037;-71
2022/10/31 12:09:00;;;;;;;13.18;7.47;;;14.50;99.90;;;;;;5017266;28;20038;-71
2022/10/31 12:11:40;;;;;;;15.27;6.72;;;14.60;99.90;;;;;;5017045;28;20772;-71
2022/10/31 12:14:09;;;;;;;11.95;6.25;;;14.60;99.90;;;;;;5015238;28;20041;-72
2022/10/31 12:17:00;;;;;;;12.27;6.93;;;14.60;99.90;;;;;;5022812;28;20054;-72
2022/10/31 12:19:48;;;;;;;12.45;5.82;;;14.70;99.90;;;;;;5011209;28;20123;-71
2022/10/31 12:22:24;;;;;;;10.63;5.15;;;14.70;99.90;;;;;;5014655;28;20132;-71
2022/10/31 12:25:12;;;;;;;12.60;5.22;;;14.70;99.90;;;;;;5013885;28;20046;-71
2022/10/31 12:27:59;;;;;;;10.40;4.97;;;14.70;99.90;;;;;;5014580;28;20405;-72
2022/10/31 12:31:03;;;;;;;12.40;5.38;;;14.70;99.90;;;;;;5037847;28;20391;-72
2022/10/31 12:33:49;;;;;;;13.65;5.95;;;14.80;99.90;;;;;;4982660;28;20053;-71
2022/10/31 12:36:20;;;;;;;12.35;5.78;;;14.80;99.90;;;;;;5020594;28;20041;-72
2022/10/31 12:38:55;;;;;;;14.52;5.70;;;14.80;99.90;;;;;;5010886;28;20081;-72
2022/10/31 12:41:50;;;;;;;11.18;5.65;;;14.80;99.90;;;;;;4988367;28;20454;-72
2022/10/31 12:44:41;;;;;;;9.60;5.40;;;14.80;99.90;;;;;;5036205;28;20553;-71
2022/10/31 12:47:41;;;;;;;14.20;5.57;;;14.80;99.90;;;;;;5015509;28;20128;-71
2022/10/31 12:50:19;;;;;;;11.18;5.43;;;14.80;99.90;;;;;;5015373;28;20132;-72
2022/10/31 12:52:57;;;;;;;12.18;6.15;;;14.70;99.90;;;;;;5018592;28;20041;-72
2022/10/31 12:55:32;;;;;;;14.43;5.50;;;14.80;99.90;;;;;;5002624;28;20132;-72